Time;durP1;ratioP1;P1;durP2;ratioP2;P2;SDS_P1;SDS_P2;PMS_P1;PMS_P2;Temp;Humidity;BMP_temperature;BMP_pressure;BME280_temperature;BME280_humidity;BME280_pressure;Samples;Min_cycle;Max_cycle;Signal;HPM_P1;HPM_P2
2023/07/16 00:01:24;;;;;;;;;5.00;5.00;;;;;25.29;34.11;100821.69;4967700;28;66269;-39
2023/07/16 00:03:49;;;;;;;;;4.50;4.50;;;;;25.26;33.71;100824.56;4959519;28;45440;-42
2023/07/16 00:06:14;;;;;;;;;3.75;2.75;;;;;25.25;33.58;100829.97;4957748;28;45595;-39
2023/07/16 00:08:40;;;;;;;;;6.00;5.00;;;;;25.26;34.00;100829.88;4957638;28;45957;-41
2023/07/16 00:11:05;;;;;;;;;4.00;4.00;;;;;25.25;34.15;100833.47;4958038;28;48526;-40
2023/07/16 00:13:30;;;;;;;;;6.00;3.00;;;;;25.23;34.06;100830.09;4958085;28;45301;-40
2023/07/16 00:15:56;;;;;;;;;6.75;3.75;;;;;25.19;33.86;100820.66;4958127;28;46161;-40
2023/07/16 00:18:21;;;;;;;;;4.50;3.50;;;;;25.22;34.08;100824.91;4958866;28;45250;-41
2023/07/16 00:20:46;;;;;;;;;8.00;5.50;;;;;25.22;33.70;100828.41;4961345;28;45482;-41
2023/07/16 00:23:11;;;;;;;;;4.00;4.00;;;;;25.19;34.36;100828.63;4963889;28;45486;-38
2023/07/16 00:25:37;;;;;;;;;7.50;5.00;;;;;25.16;34.51;100818.25;4961411;28;45340;-42
2023/07/16 00:28:02;;;;;;;;;5.75;5.00;;;;;25.16;33.95;100824.41;4962200;28;45221;-40
2023/07/16 00:30:28;;;;;;;;;9.00;4.75;;;;;25.15;34.18;100824.53;4962908;28;46422;-40
2023/07/16 00:32:53;;;;;;;;;5.00;5.00;;;;;25.13;34.02;100831.75;4957836;28;59121;-40
2023/07/16 00:35:18;;;;;;;;;7.00;5.00;;;;;25.12;34.18;100835.34;4957876;28;45162;-40
2023/07/16 00:37:44;;;;;;;;;5.50;4.00;;;;;25.09;34.39;100832.94;4958338;28;45525;-40
2023/07/16 00:40:10;;;;;;;;;5.00;5.00;;;;;25.09;34.28;100823.19;4960233;28;47170;-39
2023/07/16 00:42:36;;;;;;;;;6.00;6.00;;;;;25.09;34.40;100835.56;4962048;28;45443;-40
2023/07/16 00:45:02;;;;;;;;;4.75;3.75;;;;;25.08;34.82;100833.91;4961539;28;45626;-44
2023/07/16 00:47:30;;;;;;;;;5.00;4.00;;;;;25.09;34.75;100838.22;4961884;28;45371;-42
2023/07/16 00:49:55;;;;;;;;;4.50;4.00;;;;;25.04;35.09;100829.78;4961561;28;46346;-39
2023/07/16 00:52:22;;;;;;;;;5.25;4.00;;;;;25.06;35.13;100843.78;4962147;28;45296;-44
2023/07/16 00:54:48;;;;;;;;;4.00;4.00;;;;;25.05;34.88;100842.09;4961432;28;45430;-40
2023/07/16 00:57:13;;;;;;;;;4.75;4.50;;;;;25.03;35.17;100834.22;4967378;28;45965;-39
2023/07/16 00:59:42;;;;;;;;;6.50;5.00;;;;;25.03;35.18;100838.69;4964952;28;45383;-41
2023/07/16 01:02:08;;;;;;;;;6.00;6.00;;;;;25.04;34.69;100835.94;4965538;28;45746;-42
2023/07/16 01:04:33;;;;;;;;;6.75;6.00;;;;;25.04;35.15;100845.69;4962845;28;45281;-39
2023/07/16 01:07:03;;;;;;;;;9.25;6.50;;;;;25.01;35.45;100842.31;4961267;28;45878;-38
2023/07/16 01:09:30;;;;;;;;;5.00;5.00;;;;;24.97;35.33;100846.13;4961599;28;45610;-39
2023/07/16 01:11:57;;;;;;;;;7.50;5.00;;;;;25.01;34.83;100847.63;4963530;28;45628;-39
2023/07/16 01:14:23;;;;;;;;;4.00;4.00;;;;;24.99;35.19;100844.22;4962961;28;45355;-40
2023/07/16 01:16:49;;;;;;;;;9.50;5.50;;;;;25.00;35.63;100861.00;4972641;28;44981;-39
2023/07/16 01:19:14;;;;;;;;;5.75;4.25;;;;;24.98;34.93;100853.13;4966399;28;48086;-39
2023/07/16 01:21:45;;;;;;;;;7.00;5.00;;;;;24.96;35.73;100860.38;4968557;28;58763;-39
2023/07/16 01:24:55;;;;;;;;;5.25;5.00;;;;;24.96;35.56;100864.81;4968449;28;44643;-39
2023/07/16 01:27:39;;;;;;;;;5.50;4.25;;;;;24.93;35.92;100868.56;4939356;28;44840;-38
2023/07/16 01:30:08;;;;;;;;;4.50;4.50;;;;;24.92;35.55;100864.22;4971051;28;46155;-44
2023/07/16 01:32:37;;;;;;;;;6.50;6.00;;;;;24.92;35.67;100868.66;4975466;28;45845;-39
2023/07/16 01:35:05;;;;;;;;;4.00;4.00;;;;;24.90;35.90;100862.63;4974758;28;44778;-41
2023/07/16 01:37:31;;;;;;;;;4.50;4.00;;;;;24.90;35.28;100871.44;4974511;28;45458;-40
2023/07/16 01:39:57;;;;;;;;;4.75;4.75;;;;;24.91;35.44;100874.94;4973327;28;45510;-41
2023/07/16 01:42:22;;;;;;;;;6.00;5.75;;;;;24.90;35.34;100871.44;4972467;28;45395;-43
2023/07/16 01:44:47;;;;;;;;;7.25;5.00;;;;;24.88;36.04;100878.63;4968290;28;55838;-40
2023/07/16 01:47:28;;;;;;;;;6.50;4.00;;;;;24.88;35.76;100878.63;4967938;28;45232;-40
2023/07/16 01:49:54;;;;;;;;;7.25;4.75;;;;;24.87;35.89;100871.63;4967387;28;45334;-40
2023/07/16 01:52:20;;;;;;;;;5.50;5.50;;;;;24.86;35.62;100875.25;4967616;28;45288;-39
2023/07/16 01:54:45;;;;;;;;;6.00;5.25;;;;;24.85;35.98;100876.25;4979356;28;45369;-40
2023/07/16 01:57:11;;;;;;;;;5.00;5.00;;;;;24.84;35.64;100879.84;4974828;28;45736;-40
2023/07/16 01:59:36;;;;;;;;;6.75;5.00;;;;;24.84;35.69;100882.50;4960648;28;45383;-38
2023/07/16 02:02:01;;;;;;;;;5.00;5.00;;;;;24.82;36.28;100874.63;4960497;28;45218;-39
2023/07/16 02:04:27;;;;;;;;;7.00;6.50;;;;;24.82;35.77;100882.59;4961727;28;45344;-39
2023/07/16 02:06:52;;;;;;;;;8.50;6.00;;;;;24.80;36.32;100878.38;4960633;28;45329;-40
2023/07/16 02:09:17;;;;;;;;;7.25;5.75;;;;;24.79;36.17;100874.88;4963714;28;45349;-38
2023/07/16 02:11:43;;;;;;;;;8.75;6.00;;;;;24.79;35.99;100874.00;4961796;28;45475;-38
2023/07/16 02:14:08;;;;;;;;;6.25;4.75;;;;;24.78;36.10;100880.28;4959816;28;45296;-41
2023/07/16 02:16:34;;;;;;;;;7.00;5.25;;;;;24.77;35.96;100884.75;4963870;28;45627;-38
2023/07/16 02:18:59;;;;;;;;;6.50;5.25;;;;;24.75;36.13;100883.16;4959835;28;46280;-41
2023/07/16 02:21:24;;;;;;;;;4.75;3.00;;;;;24.73;36.44;100880.63;4965836;28;45389;-38
2023/07/16 02:23:50;;;;;;;;;7.25;5.25;;;;;24.72;36.27;100884.22;4967474;28;45276;-38
2023/07/16 02:26:15;;;;;;;;;6.00;5.00;;;;;24.75;36.13;100888.47;4981568;28;45275;-40
2023/07/16 02:28:40;;;;;;;;;7.00;5.25;;;;;24.71;36.69;100887.81;4977608;28;47841;-40
2023/07/16 02:31:06;;;;;;;;;9.00;7.50;;;;;24.72;36.20;100884.22;4975103;28;50589;-39
2023/07/16 02:33:31;;;;;;;;;4.50;4.50;;;;;24.72;36.17;100888.69;4968097;28;45375;-39
2023/07/16 02:35:56;;;;;;;;;6.50;3.75;;;;;24.70;36.52;100891.44;4970192;28;45704;-41
2023/07/16 02:38:22;;;;;;;;;6.25;6.00;;;;;24.69;36.78;100882.66;4972655;28;46460;-40
2023/07/16 02:40:48;;;;;;;;;6.50;6.00;;;;;24.70;36.25;100891.44;4958845;28;48670;-39
2023/07/16 02:43:14;;;;;;;;;9.00;5.00;;;;;24.66;36.23;100896.06;4959901;28;45473;-38
2023/07/16 02:45:40;;;;;;;;;9.00;7.00;;;;;24.63;36.53;100891.03;4960253;28;45568;-41
2023/07/16 02:48:06;;;;;;;;;5.75;5.75;;;;;24.63;36.25;100900.75;4964488;28;46292;-38
2023/07/16 02:50:38;;;;;;;;;8.00;5.00;;;;;24.59;36.66;100893.97;4965423;28;45286;-40
2023/07/16 02:53:05;;;;;;;;;6.75;5.50;;;;;24.57;36.46;100899.41;4960103;28;45395;-39
2023/07/16 02:55:30;;;;;;;;;9.50;5.25;;;;;24.57;36.65;100893.25;4960024;28;45645;-40
2023/07/16 02:57:56;;;;;;;;;9.00;5.25;;;;;24.55;36.47;100896.88;4962620;28;45320;-39
2023/07/16 03:00:21;;;;;;;;;5.75;4.75;;;;;24.53;36.78;100903.22;4963385;28;45315;-39
2023/07/16 03:02:48;;;;;;;;;4.00;4.00;;;;;24.52;36.46;100901.53;4970930;28;45260;-38
2023/07/16 03:05:14;;;;;;;;;4.50;3.50;;;;;24.50;36.52;100895.50;4978119;28;45155;-39
2023/07/16 03:07:39;;;;;;;;;7.75;4.75;;;;;24.49;37.13;100907.88;4979692;28;46455;-40
2023/07/16 03:10:05;;;;;;;;;5.00;3.75;;;;;24.48;37.18;100900.88;4976815;28;55239;-41
2023/07/16 03:12:30;;;;;;;;;6.75;5.25;;;;;24.47;36.66;100906.31;4978290;28;44815;-39
2023/07/16 03:14:55;;;;;;;;;7.00;4.00;;;;;24.44;37.25;100911.81;4981617;28;44934;-44
2023/07/16 03:17:21;;;;;;;;;8.75;5.00;;;;;24.41;37.36;100906.75;4969327;28;57506;-42
2023/07/16 03:19:47;;;;;;;;;7.25;6.00;;;;;24.38;37.02;100907.81;4962727;28;45703;-41
2023/07/16 03:22:13;;;;;;;;;7.50;5.00;;;;;24.39;36.85;100915.66;4959912;28;45367;-48
2023/07/16 03:24:38;;;;;;;;;6.00;6.00;;;;;24.41;37.08;100912.88;4960065;28;45471;-52
2023/07/16 03:27:04;;;;;;;;;5.00;5.00;;;;;24.39;36.76;100917.44;4958826;28;46176;-41
2023/07/16 03:29:29;;;;;;;;;5.00;5.00;;;;;24.39;37.66;100913.00;4959270;28;45485;-39
2023/07/16 03:31:54;;;;;;;;;7.00;5.00;;;;;24.38;37.50;100908.66;4959932;28;45958;-41
2023/07/16 03:34:19;;;;;;;;;8.25;6.50;;;;;24.37;37.55;100912.25;4960479;28;45393;-39
2023/07/16 03:36:45;;;;;;;;;4.50;4.25;;;;;24.37;37.52;100920.22;4964839;28;46561;-42
2023/07/16 03:39:10;;;;;;;;;5.25;5.25;;;;;24.36;37.19;100920.34;4960258;28;45357;-38
2023/07/16 03:41:36;;;;;;;;;3.00;2.00;;;;;24.34;37.28;100916.94;4960070;28;45204;-40
2023/07/16 03:44:01;;;;;;;;;5.25;4.75;;;;;24.34;37.57;100914.28;4958796;28;45254;-39
2023/07/16 03:46:26;;;;;;;;;6.33;6.33;;;;;24.33;37.60;100920.53;4964217;28;61852;-41
2023/07/16 03:48:53;;;;;;;;;6.50;4.50;;;;;24.30;37.99;100921.59;4972691;28;55653;-38
2023/07/16 03:51:18;;;;;;;;;5.75;5.00;;;;;24.30;37.59;100929.56;4971881;28;44731;-39
2023/07/16 03:53:44;;;;;;;;;5.75;5.75;;;;;24.28;37.31;100923.50;4971162;28;45625;-42
2023/07/16 03:56:09;;;;;;;;;6.00;5.00;;;;;24.29;37.85;100930.50;4964817;28;47368;-38
2023/07/16 03:58:34;;;;;;;;;6.00;5.00;;;;;24.25;38.03;100934.31;4961680;28;45252;-38
2023/07/16 04:01:00;;;;;;;;;7.50;4.75;;;;;24.26;37.95;100933.38;4961151;28;45303;-38
2023/07/16 04:03:25;;;;;;;;;4.25;4.25;;;;;24.23;38.07;100926.50;4957946;28;45611;-40
2023/07/16 04:05:50;;;;;;;;;5.33;5.00;;;;;24.25;38.04;100944.91;4957170;28;63749;-38
2023/07/16 04:08:16;;;;;;;;;6.75;4.50;;;;;24.22;37.91;100940.69;4957447;28;45473;-41
2023/07/16 04:10:43;;;;;;;;;7.50;4.75;;;;;24.20;38.32;100932.00;4958412;28;45388;-46
2023/07/16 04:13:08;;;;;;;;;6.75;5.75;;;;;24.18;38.15;100943.66;4970228;28;52492;-42
2023/07/16 04:15:34;;;;;;;;;5.67;5.67;;;;;24.18;37.63;100933.06;4969515;28;65044;-40
2023/07/16 04:17:59;;;;;;;;;8.00;6.33;;;;;24.17;37.64;100936.66;4961637;28;56429;-39
2023/07/16 04:20:24;;;;;;;;;6.75;5.75;;;;;24.19;37.82;100940.88;4961621;28;45248;-38
2023/07/16 04:22:50;;;;;;;;;7.50;4.25;;;;;24.18;37.63;100941.00;4960476;28;45304;-38
2023/07/16 04:25:15;;;;;;;;;6.50;6.00;;;;;24.20;37.95;100949.66;4962437;28;56016;-41
2023/07/16 04:27:42;;;;;;;;;6.50;4.75;;;;;24.19;38.18;100942.69;4962032;28;45724;-38
2023/07/16 04:30:08;;;;;;;;;10.75;7.00;;;;;24.18;37.96;100951.59;4961589;28;45355;-40
2023/07/16 04:32:33;;;;;;;;;6.75;3.25;;;;;24.18;37.88;100951.59;4961505;28;45458;-39
2023/07/16 04:34:58;;;;;;;;;6.25;6.00;;;;;24.16;38.19;100956.97;4961024;28;46100;-40
2023/07/16 04:37:24;;;;;;;;;5.50;5.50;;;;;24.18;38.01;100962.19;4960858;28;54867;-38
2023/07/16 04:39:50;;;;;;;;;7.00;5.75;;;;;24.15;38.08;100959.75;4962183;28;45307;-38
2023/07/16 04:42:16;;;;;;;;;6.25;5.25;;;;;24.16;37.69;100961.44;4964159;28;45557;-40
2023/07/16 04:44:42;;;;;;;;;8.50;6.25;;;;;24.16;38.09;100961.44;4967961;28;46525;-39
2023/07/16 04:47:07;;;;;;;;;6.25;5.00;;;;;24.15;38.13;100965.88;4974511;28;45450;-42
2023/07/16 04:49:35;;;;;;;;;6.67;5.00;;;;;24.15;38.70;100965.88;4965077;28;58048;-47
2023/07/16 04:52:00;;;;;;;;;9.25;7.25;;;;;24.14;38.65;100979.22;4971238;28;44868;-43
2023/07/16 04:54:26;;;;;;;;;5.50;5.00;;;;;24.11;38.53;100974.13;4969935;28;46365;-40
2023/07/16 04:56:51;;;;;;;;;7.75;6.50;;;;;24.12;38.84;100979.34;4968193;28;45306;-40
2023/07/16 04:59:16;;;;;;;;;5.50;4.50;;;;;24.08;38.33;100980.50;4961854;28;52562;-41
2023/07/16 05:01:42;;;;;;;;;5.00;3.75;;;;;24.08;38.41;100989.31;4961748;28;45641;-39
2023/07/16 05:04:07;;;;;;;;;7.25;7.00;;;;;24.07;38.83;100990.25;4960413;28;48757;-38
2023/07/16 05:06:33;;;;;;;;;4.50;4.50;;;;;24.04;38.59;101001.03;4960417;28;45593;-38
2023/07/16 05:08:58;;;;;;;;;4.75;4.00;;;;;24.00;38.52;100988.97;4965326;28;45438;-39
2023/07/16 05:11:25;;;;;;;;;6.75;5.00;;;;;24.00;39.19;100996.06;4967566;28;45313;-41
2023/07/16 05:13:50;;;;;;;;;6.00;4.25;;;;;24.01;38.64;100995.94;4960666;28;46253;-40
2023/07/16 05:16:16;;;;;;;;;5.00;4.00;;;;;23.98;38.95;100996.16;4960246;28;45273;-41
2023/07/16 05:18:41;;;;;;;;;6.00;4.50;;;;;23.98;39.23;100995.31;4960785;28;45427;-38
2023/07/16 05:21:06;;;;;;;;;6.00;6.00;;;;;23.99;39.16;100997.00;4962412;28;45933;-41
2023/07/16 05:23:32;;;;;;;;;7.00;6.00;;;;;24.00;39.30;100996.91;4960346;28;46435;-40
2023/07/16 05:25:57;;;;;;;;;5.00;4.25;;;;;24.01;39.30;101001.25;4959568;28;45433;-41
2023/07/16 05:28:22;;;;;;;;;6.25;6.25;;;;;24.00;39.16;100996.91;4960960;28;46924;-42
2023/07/16 05:30:48;;;;;;;;;7.67;6.00;;;;;24.00;39.50;101002.19;4962526;28;52177;-38
2023/07/16 05:33:13;;;;;;;;;6.00;4.00;;;;;23.99;39.49;101002.31;4961455;28;46343;-41
2023/07/16 05:35:39;;;;;;;;;7.75;7.75;;;;;23.99;39.58;100997.00;4960564;28;45355;-41
2023/07/16 05:38:05;;;;;;;;;9.00;6.00;;;;;23.95;39.67;101001.66;4967122;28;45368;-41
2023/07/16 05:40:30;;;;;;;;;9.25;4.25;;;;;23.96;39.35;100999.84;4963009;28;45376;-41
2023/07/16 05:42:55;;;;;;;;;6.00;5.00;;;;;23.92;39.28;101000.03;4962142;28;58511;-41
2023/07/16 05:45:20;;;;;;;;;5.75;5.00;;;;;23.93;40.06;101008.84;4960643;28;45316;-40
2023/07/16 05:47:46;;;;;;;;;8.00;5.00;;;;;23.91;39.55;101011.59;4959765;28;46694;-43
2023/07/16 05:50:11;;;;;;;;;7.00;6.00;;;;;23.89;39.31;101010.84;4960926;28;45665;-41
2023/07/16 05:52:37;;;;;;;;;6.00;6.00;;;;;23.88;40.06;101009.13;4959776;28;45420;-41
2023/07/16 05:55:02;;;;;;;;;7.50;5.00;;;;;23.87;40.08;101014.53;4962880;28;50808;-40
2023/07/16 05:57:28;;;;;;;;;5.00;5.00;;;;;23.84;40.09;101005.00;4959810;28;45233;-42
2023/07/16 05:59:53;;;;;;;;;6.00;6.00;;;;;23.86;40.25;101012.84;4960426;28;45382;-40
2023/07/16 06:02:18;;;;;;;;;6.00;4.75;;;;;23.86;40.21;101026.09;4959289;28;47159;-42
2023/07/16 06:04:44;;;;;;;;;8.00;6.50;;;;;23.84;39.70;101018.22;4958818;28;45428;-40
2023/07/16 06:07:09;;;;;;;;;9.00;8.00;;;;;23.86;39.96;101018.16;4962505;28;61955;-38
2023/07/16 06:09:35;;;;;;;;;5.00;4.50;;;;;23.87;40.19;101027.75;4966376;28;45235;-42
2023/07/16 06:12:00;;;;;;;;;7.50;5.75;;;;;23.85;40.41;101019.09;4959847;28;46359;-41
2023/07/16 06:14:25;;;;;;;;;7.25;6.75;;;;;23.85;40.34;101024.38;4960134;28;45278;-38
2023/07/16 06:16:52;;;;;;;;;7.25;5.75;;;;;23.88;39.96;101026.81;4962628;28;45170;-39
2023/07/16 06:19:17;;;;;;;;;9.75;5.50;;;;;23.89;40.52;101031.16;4960365;28;45414;-39
2023/07/16 06:21:43;;;;;;;;;5.75;5.25;;;;;23.91;40.61;101032.78;4959322;28;45621;-41
2023/07/16 06:24:08;;;;;;;;;8.00;6.00;;;;;23.90;40.46;101024.91;4958117;28;45337;-39
2023/07/16 06:26:33;;;;;;;;;8.00;6.00;;;;;23.90;40.57;101031.06;4959807;28;45774;-39
2023/07/16 06:28:59;;;;;;;;;3.50;3.50;;;;;23.86;40.63;101034.03;4960502;28;45582;-39
2023/07/16 06:31:24;;;;;;;;;7.25;6.00;;;;;23.86;40.31;101028.72;4958527;28;59676;-39
2023/07/16 06:33:50;;;;;;;;;9.00;7.00;;;;;23.86;40.42;101036.66;4964241;28;45440;-43
2023/07/16 06:36:16;;;;;;;;;10.50;7.25;;;;;23.89;40.21;101039.09;4963451;28;45344;-39
2023/07/16 06:38:41;;;;;;;;;9.50;6.25;;;;;23.88;40.44;101040.03;4961793;28;45269;-39
2023/07/16 06:41:07;;;;;;;;;7.25;5.25;;;;;23.87;40.77;101041.00;4960227;28;46128;-40
2023/07/16 06:43:32;;;;;;;;;8.25;4.75;;;;;23.84;40.75;101043.84;4959649;28;45161;-40
2023/07/16 06:45:57;;;;;;;;;6.25;5.25;;;;;23.87;40.42;101041.00;4964942;28;45733;-41
2023/07/16 06:48:23;;;;;;;;;7.75;6.00;;;;;23.89;40.62;101044.38;4965184;28;45279;-43
2023/07/16 06:50:50;;;;;;;;;7.00;5.50;;;;;23.90;40.76;101040.78;4962093;28;47611;-39
2023/07/16 06:53:15;;;;;;;;;8.75;6.25;;;;;23.92;40.67;101050.31;4959061;28;45282;-39
2023/07/16 06:55:40;;;;;;;;;7.25;5.25;;;;;23.94;40.54;101053.72;4958266;28;54254;-41
2023/07/16 06:58:09;;;;;;;;;11.00;8.00;;;;;23.96;40.52;101051.03;4958870;28;45480;-41
2023/07/16 07:00:35;;;;;;;;;9.25;6.75;;;;;23.99;40.51;101053.44;4959742;28;45809;-40
2023/07/16 07:03:00;;;;;;;;;7.25;6.75;;;;;24.03;40.45;101052.31;4969300;28;45316;-40
2023/07/16 07:05:25;;;;;;;;;8.75;6.00;;;;;24.05;40.83;101052.19;4960088;28;45349;-42
2023/07/16 07:07:51;;;;;;;;;6.25;6.25;;;;;24.06;40.69;101045.94;4958766;28;45431;-44
2023/07/16 07:10:16;;;;;;;;;8.00;6.75;;;;;24.07;40.69;101055.59;4958653;28;45444;-38
2023/07/16 07:12:41;;;;;;;;;6.00;5.00;;;;;24.07;40.78;101059.09;4960869;28;45437;-39
2023/07/16 07:15:08;;;;;;;;;6.25;6.25;;;;;24.08;40.95;101059.94;4958002;28;45806;-38
2023/07/16 07:17:33;;;;;;;;;6.75;6.00;;;;;24.06;40.60;101049.44;4958347;28;45401;-40
2023/07/16 07:20:00;;;;;;;;;6.75;5.00;;;;;24.10;40.79;101058.03;4958770;28;45725;-40
2023/07/16 07:22:25;;;;;;;;;7.25;5.25;;;;;24.10;40.80;101055.38;4960619;28;45346;-38
2023/07/16 07:24:50;;;;;;;;;9.00;4.75;;;;;24.13;40.84;101059.63;4965105;28;45151;-41
2023/07/16 07:27:16;;;;;;;;;6.75;6.00;;;;;24.13;40.84;101055.19;4960946;28;45222;-40
2023/07/16 07:29:41;;;;;;;;;6.00;6.00;;;;;24.16;40.82;101059.41;4962254;28;46531;-43
2023/07/16 07:32:07;;;;;;;;;8.25;4.75;;;;;24.15;40.15;101057.72;4964709;28;53364;-45
2023/07/16 07:34:32;;;;;;;;;7.50;6.00;;;;;24.13;40.18;101056.97;4960319;28;45392;-39
2023/07/16 07:36:58;;;;;;;;;6.00;5.00;;;;;24.16;40.43;101054.13;4958563;28;48039;-40
2023/07/16 07:39:23;;;;;;;;;5.25;5.25;;;;;24.16;40.11;101056.78;4958291;28;46250;-38
2023/07/16 07:41:48;;;;;;;;;7.75;6.00;;;;;24.17;40.39;101058.47;4958276;28;45549;-43
2023/07/16 07:44:13;;;;;;;;;5.67;5.00;;;;;24.17;40.14;101053.19;4958324;28;57575;-38
2023/07/16 07:46:39;;;;;;;;;8.50;5.00;;;;;24.23;40.19;101058.03;4960312;28;47901;-38
2023/07/16 07:49:04;;;;;;;;;5.00;5.00;;;;;24.23;40.30;101052.75;4958162;28;54869;-39
2023/07/16 07:51:29;;;;;;;;;4.75;4.75;;;;;24.25;40.31;101056.16;4958043;28;45404;-40
2023/07/16 07:53:55;;;;;;;;;8.75;7.50;;;;;24.26;40.51;101049.91;4958994;28;45325;-38
2023/07/16 07:56:20;;;;;;;;;6.75;5.00;;;;;24.27;40.06;101059.53;4960386;28;45333;-40
2023/07/16 07:58:45;;;;;;;;;7.00;5.50;;;;;24.28;39.79;101058.59;4963403;28;46179;-43
2023/07/16 08:01:11;;;;;;;;;10.50;6.00;;;;;24.27;39.94;101064.84;4970390;28;45511;-41
2023/07/16 08:03:36;;;;;;;;;6.50;4.25;;;;;24.29;40.07;101062.94;4981749;28;44722;-40
2023/07/16 08:06:02;;;;;;;;;7.25;6.25;;;;;24.27;40.08;101059.53;4981373;28;44906;-41
2023/07/16 08:08:27;;;;;;;;;6.25;5.75;;;;;24.26;39.45;101057.84;4975331;28;45221;-40
2023/07/16 08:10:53;;;;;;;;;4.25;4.00;;;;;24.27;39.83;101051.59;4967086;28;45312;-39
2023/07/16 08:13:18;;;;;;;;;5.00;5.00;;;;;24.30;39.35;101072.59;4959972;28;45296;-40
2023/07/16 08:15:44;;;;;;;;;9.00;6.00;;;;;24.31;39.30;101061.00;4958736;28;45697;-38
2023/07/16 08:18:09;;;;;;;;;8.25;5.50;;;;;24.31;39.25;101061.00;4962351;28;46025;-38
2023/07/16 08:20:36;;;;;;;;;6.75;5.00;;;;;24.33;39.26;101075.00;4965604;28;45502;-40
2023/07/16 08:23:01;;;;;;;;;6.00;5.00;;;;;24.33;39.15;101061.75;4970778;28;44783;-40
2023/07/16 08:25:26;;;;;;;;;9.50;5.75;;;;;24.32;39.10;101059.22;4963990;28;44869;-38
2023/07/16 08:27:52;;;;;;;;;8.25;6.00;;;;;24.35;39.52;101062.50;4973091;28;48897;-40
2023/07/16 08:30:17;;;;;;;;;6.67;4.00;;;;;24.38;39.11;101058.78;4974944;28;59893;-39
2023/07/16 08:32:42;;;;;;;;;9.00;5.50;;;;;24.40;39.49;101067.50;4978825;28;45273;-40
2023/07/16 08:35:12;;;;;;;;;5.00;4.25;;;;;24.42;39.55;101070.88;4978830;28;44829;-39
2023/07/16 08:37:37;;;;;;;;;6.75;5.25;;;;;24.44;39.41;101070.78;4979683;28;46389;-39
2023/07/16 08:40:03;;;;;;;;;6.00;4.75;;;;;24.44;39.20;101054.88;4983056;28;47509;-42
2023/07/16 08:42:29;;;;;;;;;6.00;5.00;;;;;24.46;39.36;101064.44;4982538;28;45327;-41
2023/07/16 08:44:54;;;;;;;;;5.50;4.00;;;;;24.47;39.20;101060.84;4980438;28;45379;-40
2023/07/16 08:47:20;;;;;;;;;5.50;5.00;;;;;24.51;38.71;101064.13;4979326;28;45354;-44
2023/07/16 08:49:58;;;;;;;;;6.50;5.00;;;;;24.47;38.72;101049.38;4974874;28;44689;-42
2023/07/16 08:52:27;;;;;;;;;5.75;4.25;;;;;24.52;39.04;101079.91;4962946;28;45399;-43
2023/07/16 08:54:52;;;;;;;;;6.50;4.75;;;;;24.52;39.02;101063.16;4967833;28;45315;-44
2023/07/16 08:57:19;;;;;;;;;4.75;3.50;;;;;24.50;38.16;101065.06;4970998;28;45466;-43
2023/07/16 08:59:50;;;;;;;;;4.00;4.00;;;;;24.52;38.83;101079.91;4965667;28;45311;-45
2023/07/16 09:02:20;;;;;;;;;6.75;5.75;;;;;24.53;38.38;101070.13;4966093;28;45414;-41
2023/07/16 09:04:47;;;;;;;;;7.00;5.25;;;;;24.55;38.49;101078.84;4965096;28;45430;-46
2023/07/16 09:07:13;;;;;;;;;4.00;4.00;;;;;24.56;38.73;101067.28;4963371;28;46088;-42
2023/07/16 09:09:38;;;;;;;;;4.50;3.75;;;;;24.59;38.41;101075.03;4960268;28;45519;-41
2023/07/16 09:12:04;;;;;;;;;5.50;4.75;;;;;24.61;38.74;101073.13;4961245;28;45435;-42
2023/07/16 09:14:29;;;;;;;;;5.00;4.00;;;;;24.63;38.71;101076.53;4961217;28;45574;-41
2023/07/16 09:16:55;;;;;;;;;5.75;4.00;;;;;24.64;38.31;101078.19;4963433;28;45388;-42
2023/07/16 09:19:21;;;;;;;;;4.25;4.00;;;;;24.63;38.10;101084.47;4963937;28;45395;-43
2023/07/16 09:21:47;;;;;;;;;9.00;6.00;;;;;24.62;38.63;101076.63;4962888;28;45380;-41
2023/07/16 09:24:12;;;;;;;;;7.00;5.00;;;;;24.60;38.71;101076.72;4964308;28;45614;-43
2023/07/16 09:26:38;;;;;;;;;7.50;4.50;;;;;24.60;38.63;101071.44;4963229;28;45336;-43
2023/07/16 09:29:07;;;;;;;;;4.25;4.25;;;;;24.63;38.48;101083.63;4958834;28;45349;-42
2023/07/16 09:31:33;;;;;;;;;4.75;4.00;;;;;24.63;37.75;101076.53;4959566;28;45360;-44
2023/07/16 09:33:58;;;;;;;;;5.25;4.00;;;;;24.65;38.04;101074.59;4960260;28;45879;-45
2023/07/16 09:36:27;;;;;;;;;3.00;3.00;;;;;24.66;37.98;101071.00;4960341;28;46552;-43
2023/07/16 09:38:54;;;;;;;;;10.25;4.00;;;;;24.67;38.19;101066.56;4959877;28;45658;-42
2023/07/16 09:41:20;;;;;;;;;4.50;4.50;;;;;24.69;38.21;101075.28;4959585;28;45495;-42
2023/07/16 09:43:47;;;;;;;;;4.00;4.00;;;;;24.69;37.57;101078.78;4960437;28;45245;-43
2023/07/16 09:46:12;;;;;;;;;5.25;4.00;;;;;24.69;37.66;101086.72;4960002;28;47387;-42
2023/07/16 09:48:37;;;;;;;;;4.50;4.50;;;;;24.72;38.15;101079.50;4959934;28;45551;-39
2023/07/16 09:51:04;;;;;;;;;5.25;4.00;;;;;24.72;37.53;101079.50;4960362;28;45375;-42
2023/07/16 09:53:32;;;;;;;;;4.50;3.00;;;;;24.73;37.97;101082.03;4962413;28;45736;-40
2023/07/16 09:56:00;;;;;;;;;3.00;1.00;;;;;24.73;37.78;101086.50;4961756;28;46167;-40
2023/07/16 09:58:26;;;;;;;;;5.75;3.50;;;;;24.72;37.46;101071.56;4964290;28;45324;-39
2023/07/16 10:00:52;;;;;;;;;4.25;4.00;;;;;24.73;37.45;101078.56;4959990;28;45470;-46
2023/07/16 10:03:17;;;;;;;;;3.75;3.25;;;;;24.66;37.71;101071.00;4960188;28;45519;-39
2023/07/16 10:05:43;;;;;;;;;5.50;4.00;;;;;24.73;37.41;101081.22;4959233;28;45515;-40
2023/07/16 10:08:17;;;;;;;;;5.25;3.75;;;;;24.75;37.73;101084.63;4959909;28;45416;-40
2023/07/16 10:10:54;;;;;;;;;5.50;5.25;;;;;24.75;37.30;101074.00;4959034;28;45383;-42
2023/07/16 10:13:23;;;;;;;;;3.00;3.00;;;;;24.77;37.41;101077.38;4958039;28;45405;-41
2023/07/16 10:15:58;;;;;;;;;7.75;4.00;;;;;24.77;37.55;101072.06;4958928;28;46587;-40
2023/07/16 10:18:27;;;;;;;;;4.25;4.00;;;;;24.81;37.02;101078.88;4960126;28;45668;-41
2023/07/16 10:20:53;;;;;;;;;5.50;4.00;;;;;24.80;37.37;101066.56;4962669;28;45307;-38
2023/07/16 10:23:19;;;;;;;;;6.50;3.50;;;;;24.82;37.22;101064.66;4963215;28;45571;-41
2023/07/16 10:26:07;;;;;;;;;5.50;4.00;;;;;24.82;36.75;101062.84;4960060;28;45406;-42
2023/07/16 10:28:33;;;;;;;;;10.00;3.00;;;;;24.81;37.17;101047.06;4959870;28;45659;-38
2023/07/16 10:30:59;;;;;;;;;7.00;4.25;;;;;24.82;37.13;101065.50;4961595;28;45681;-40
2023/07/16 10:33:24;;;;;;;;;6.25;3.25;;;;;24.83;37.11;101061.06;4962242;28;45522;-44
2023/07/16 10:35:49;;;;;;;;;9.00;5.25;;;;;24.85;36.85;101052.03;4966038;28;46219;-42
2023/07/16 10:38:15;;;;;;;;;6.00;4.00;;;;;24.87;36.96;101059.88;4961491;28;45260;-40
2023/07/16 10:40:44;;;;;;;;;2.00;0.00;;;;;24.90;36.63;101062.31;4959241;28;45347;-43
2023/07/16 10:43:11;;;;;;;;;5.00;3.00;;;;;24.91;37.08;101058.72;4959556;28;45585;-44
2023/07/16 10:45:37;;;;;;;;;4.50;4.00;;;;;24.93;37.02;101056.78;4958927;28;46574;-42
2023/07/16 10:48:02;;;;;;;;;7.25;5.25;;;;;24.92;36.46;101055.09;4960415;28;45182;-41
2023/07/16 10:50:27;;;;;;;;;8.25;3.25;;;;;24.94;36.79;101053.19;4965945;28;45781;-41
2023/07/16 10:52:54;;;;;;;;;6.75;4.25;;;;;24.96;36.86;101055.72;4975977;28;45813;-40
2023/07/16 10:55:21;;;;;;;;;4.50;4.00;;;;;24.97;36.52;101052.94;4959064;28;46871;-41
2023/07/16 10:57:50;;;;;;;;;5.50;2.25;;;;;24.97;36.71;101052.94;4959161;28;45320;-41
2023/07/16 11:00:16;;;;;;;;;4.75;3.50;;;;;24.99;36.33;101048.41;4959523;28;45299;-41
2023/07/16 11:02:43;;;;;;;;;5.50;4.00;;;;;25.01;36.68;101043.84;4962074;28;45550;-39
2023/07/16 11:05:16;;;;;;;;;4.00;4.00;;;;;25.01;36.70;101049.13;4958052;28;46615;-41
2023/07/16 11:07:45;;;;;;;;;6.50;3.50;;;;;25.02;36.11;101047.34;4957576;28;45647;-40
2023/07/16 11:10:11;;;;;;;;;3.00;3.00;;;;;25.04;35.94;101048.06;4958545;28;45469;-43
2023/07/16 11:12:37;;;;;;;;;3.50;3.50;;;;;25.05;36.53;101039.16;4968240;28;45607;-40
2023/07/16 11:15:02;;;;;;;;;4.00;3.00;;;;;25.05;36.29;101033.84;4965950;28;46151;-38
2023/07/16 11:17:28;;;;;;;;;3.00;2.00;;;;;25.07;36.21;101031.94;4961610;28;45366;-38
2023/07/16 11:19:55;;;;;;;;;4.25;3.25;;;;;25.07;35.37;101041.72;4965221;28;45302;-42